Time;durP1;ratioP1;P1;durP2;ratioP2;P2;SDS_P1;SDS_P2;PMS_P1;PMS_P2;Temp;Humidity;BMP_temperature;BMP_pressure;BME280_temperature;BME280_humidity;BME280_pressure;Samples;Min_cycle;Max_cycle;Signal;HPM_P1;HPM_P2
2023/05/31 08:46:50;;;;;;;15.20;5.30;;;;;;;5.98;54.15;97674.53;5078857;28;20403;-57
2023/05/31 08:49:20;;;;;;;16.30;5.93;;;;;;;6.10;53.38;97673.75;5062762;28;20040;-58
2023/05/31 08:51:48;;;;;;;16.33;7.07;;;;;;;6.32;53.66;97678.84;5059468;28;20057;-58
2023/05/31 08:54:17;;;;;;;15.05;6.60;;;;;;;6.48;52.12;97670.53;5066092;28;20044;-58
2023/05/31 08:56:45;;;;;;;23.35;8.88;;;;;;;6.57;51.79;97675.59;5061565;28;20048;-55
2023/05/31 08:59:16;;;;;;;20.90;8.98;;;;;;;6.62;52.67;97673.97;5068104;28;20055;-55
2023/05/31 09:01:43;;;;;;;21.10;4.57;;;;;;;6.62;51.76;97676.63;5064628;28;20049;-55
2023/05/31 09:04:11;;;;;;;13.57;4.80;;;;;;;6.78;51.73;97672.72;5067639;28;20037;-55
2023/05/31 09:06:38;;;;;;;15.05;5.10;;;;;;;6.87;51.25;97668.06;5065497;28;20033;-54
2023/05/31 09:09:08;;;;;;;20.52;6.68;;;;;;;7.02;50.35;97673.09;5068513;28;20059;-55
2023/05/31 09:11:37;;;;;;;15.52;4.80;;;;;;;7.14;50.13;97662.75;5066453;28;20052;-54
2023/05/31 09:14:04;;;;;;;15.93;5.97;;;;;;;7.23;49.98;97659.66;5067025;28;20052;-55
2023/05/31 09:16:31;;;;;;;15.50;6.18;;;;;;;7.47;49.97;97668.72;5065499;28;20437;-54
2023/05/31 09:19:02;;;;;;;17.23;6.10;;;;;;;7.57;49.31;97668.28;5068309;28;20088;-55
2023/05/31 09:21:29;;;;;;;19.52;5.20;;;;;;;7.77;48.36;97673.47;5066706;28;20132;-55
2023/05/31 09:23:59;;;;;;;11.13;4.53;;;;;;;7.79;46.21;97670.63;5068893;28;20072;-54
2023/05/31 09:26:27;;;;;;;18.25;7.03;;;;;;;7.77;46.25;97668.19;5063698;28;20509;-55
2023/05/31 09:28:55;;;;;;;12.65;5.53;;;;;;;8.05;45.93;97667.00;5069473;28;20076;-55
2023/05/31 09:31:22;;;;;;;11.88;4.13;;;;;;;8.13;45.90;97664.13;5061913;28;20037;-54
2023/05/31 09:33:51;;;;;;;13.80;4.75;;;;;;;8.20;44.24;97667.50;5068311;28;20044;-54
2023/05/31 09:36:27;;;;;;;17.70;8.07;;;;;;;8.29;42.31;97669.91;5053917;28;20035;-57
2023/05/31 09:39:00;;;;;;;13.93;5.20;;;;;;;8.54;41.14;97664.66;5068404;28;20049;-58
2023/05/31 09:41:27;;;;;;;15.27;6.63;;;;;;;8.69;42.34;97664.34;5063894;28;20118;-58
2023/05/31 09:43:54;;;;;;;13.13;4.22;;;;;;;8.77;41.33;97662.22;5075787;28;20131;-55
2023/05/31 09:46:22;;;;;;;13.00;4.30;;;;;;;8.59;39.95;97647.13;5079088;28;20059;-54
2023/05/31 09:49:06;;;;;;;12.63;3.72;;;;;;;8.44;39.33;97665.97;5067908;28;20084;-55
2023/05/31 09:51:33;;;;;;;18.90;3.95;;;;;;;8.46;37.51;97660.47;5065269;28;20056;-55
2023/05/31 09:54:07;;;;;;;10.98;3.67;;;;;;;8.53;36.69;97652.47;5065299;28;20076;-55
2023/05/31 09:56:37;;;;;;;10.80;3.72;;;;;;;8.68;36.91;97660.88;5063207;28;20045;-55
2023/05/31 09:59:05;;;;;;;12.73;3.65;;;;;;;8.68;36.31;97652.97;5050612;28;20052;-55
2023/05/31 10:01:33;;;;;;;19.42;4.28;;;;;;;8.78;37.55;97666.47;5055291;28;20479;-55
2023/05/31 10:04:03;;;;;;;14.55;3.85;;;;;;;8.71;38.34;97657.78;5042059;28;20407;-55
2023/05/31 10:06:38;;;;;;;16.27;4.75;;;;;;;8.94;39.27;97664.31;5034149;28;20053;-55
2023/05/31 10:09:07;;;;;;;16.65;5.15;;;;;;;9.12;39.35;97661.69;5030910;28;20046;-55
2023/05/31 10:11:36;;;;;;;15.80;4.78;;;;;;;9.29;38.88;97653.97;5050350;28;20087;-55
2023/05/31 10:14:09;;;;;;;17.48;4.70;;;;;;;9.36;37.76;97653.88;5050904;28;20053;-55
2023/05/31 10:16:48;;;;;;;20.55;4.63;;;;;;;9.56;38.53;97661.59;5054376;28;20045;-55
2023/05/31 10:19:24;;;;;;;14.20;4.60;;;;;;;9.61;38.25;97648.50;5046378;28;20041;-55
2023/05/31 10:21:51;;;;;;;13.48;4.43;;;;;;;9.77;38.63;97652.38;5053615;28;20406;-55
2023/05/31 10:24:25;;;;;;;16.08;4.80;;;;;;;9.83;36.33;97658.63;5049756;28;20049;-55
2023/05/31 10:27:16;;;;;;;17.10;5.13;;;;;;;9.98;36.58;97645.75;5055061;28;20045;-55
2023/05/31 10:29:48;;;;;;;20.85;4.65;;;;;;;9.86;36.97;97645.75;5050554;28;20056;-55
2023/05/31 10:32:20;;;;;;;17.60;4.93;;;;;;;9.91;37.36;97653.78;5053406;28;20045;-55
2023/05/31 10:34:47;;;;;;;16.50;4.68;;;;;;;10.16;37.12;97644.91;5050659;28;20525;-55
2023/05/31 10:37:14;;;;;;;16.95;4.93;;;;;;;10.32;37.01;97644.28;5053048;28;20376;-55
2023/05/31 10:40:12;;;;;;;19.02;4.53;;;;;;;10.26;35.80;97646.97;5049118;28;20053;-55
2023/05/31 10:43:05;;;;;;;20.67;5.05;;;;;;;10.29;36.47;97639.38;5054358;28;20057;-55
2023/05/31 10:48:37;;;;;;;15.32;5.40;;;;;;;10.65;35.70;97648.22;5067847;28;20391;-54
2023/05/31 10:51:04;;;;;;;17.80;4.88;;;;;;;10.57;35.16;97641.44;5069970;28;20071;-54
2023/05/31 10:53:36;;;;;;;17.17;5.00;;;;;;;10.77;36.40;97640.28;5062857;28;20076;-54
2023/05/31 10:56:09;;;;;;;28.15;5.18;;;;;;;10.62;36.01;97647.88;5064946;28;20033;-54
2023/05/31 10:58:41;;;;;;;14.13;5.10;;;;;;;10.63;35.94;97638.91;5069363;28;20047;-54
2023/05/31 11:01:11;;;;;;;20.15;5.40;;;;;;;10.61;35.39;97633.03;5065124;28;20055;-54
2023/05/31 11:03:47;;;;;;;30.30;5.25;;;;;;;10.87;36.38;97643.16;5069629;28;20506;-54
2023/05/31 11:06:17;;;;;;;22.23;5.57;;;;;;;10.78;35.47;97644.53;5063861;28;20594;-54
2023/05/31 11:09:01;;;;;;;38.28;5.72;;;;;;;10.92;35.99;97637.97;5067850;28;20051;-54
2023/05/31 11:11:34;;;;;;;17.63;5.20;;;;;;;11.17;35.75;97644.88;5061454;28;20045;-54
2023/05/31 11:14:03;;;;;;;14.55;5.13;;;;;;;11.29;34.99;97645.63;5045808;28;20506;-55
2023/05/31 11:16:32;;;;;;;18.08;5.35;;;;;;;10.67;35.28;97635.53;5064452;28;20053;-55
2023/05/31 11:19:13;;;;;;;18.05;5.75;;;;;;;10.55;36.09;97638.19;5069887;28;20045;-55
2023/05/31 11:24:50;;;;;;;15.27;5.03;;;;;;;11.01;36.68;97633.13;5109068;27;20379;-54
2023/05/31 11:27:20;;;;;;;24.02;5.60;;;;;;;10.96;36.08;97646.25;5101771;28;20563;-54
2023/05/31 11:29:57;;;;;;;20.67;5.20;;;;;;;11.08;35.90;97630.34;5110078;28;20100;-54
2023/05/31 11:32:44;;;;;;;16.80;4.90;;;;;;;11.41;35.76;97627.03;5100780;28;20489;-54
2023/05/31 11:35:15;;;;;;;14.18;4.85;;;;;;;11.29;35.30;97627.06;5110761;28;20054;-54
2023/05/31 11:37:43;;;;;;;17.77;5.30;;;;;;;11.41;35.69;97628.91;5105288;28;20047;-54
2023/05/31 11:40:12;;;;;;;17.08;5.35;;;;;;;11.40;35.66;97630.72;5109817;28;20063;-54
2023/05/31 11:42:40;;;;;;;17.48;5.30;;;;;;;11.23;35.19;97630.66;5101475;28;20485;-54
2023/05/31 11:45:09;;;;;;;17.10;5.00;;;;;;;11.26;35.56;97629.38;5090599;28;20048;-55
2023/05/31 11:47:56;;;;;;;27.15;5.18;;;;;;;11.27;34.48;97621.19;5095860;28;20055;-54
2023/05/31 11:50:24;;;;;;;18.05;4.78;;;;;;;11.15;34.02;97625.69;5094926;28;20047;-55
2023/05/31 11:52:54;;;;;;;17.50;5.10;;;;;;;11.21;34.59;97622.13;5100613;28;20087;-55
2023/05/31 11:55:21;;;;;;;19.80;5.72;;;;;;;11.27;34.35;97623.84;5088721;28;20135;-55
2023/05/31 11:57:51;;;;;;;21.42;4.88;;;;;;;11.32;34.68;97618.63;5095228;28;20100;-55
2023/05/31 12:00:21;;;;;;;15.52;4.82;;;;;;;11.14;34.53;97608.97;5098524;28;20135;-54
2023/05/31 12:02:56;;;;;;;20.60;5.28;;;;;;;10.95;34.51;97607.50;5087736;28;20047;-56
2023/05/31 12:05:24;;;;;;;25.35;12.15;;;;;;;11.16;34.69;97605.31;5089305;28;20050;-56
2023/05/31 12:07:53;;;;;;;17.40;5.00;;;;;;;11.35;35.04;97609.41;5092730;28;20068;-55
2023/05/31 12:10:20;;;;;;;32.10;12.00;;;;;;;11.19;34.07;97605.63;5095330;28;20051;-56
2023/05/31 12:12:47;;;;;;;25.45;9.48;;;;;;;11.16;34.90;97592.03;5090612;28;20048;-56
2023/05/31 12:15:16;;;;;;;31.92;14.30;;;;;;;11.16;35.15;97594.69;5097123;28;20051;-56
2023/05/31 12:17:43;;;;;;;15.57;5.30;;;;;;;11.16;34.90;97600.78;5092576;28;20621;-56
2023/05/31 12:20:12;;;;;;;32.63;16.17;;;;;;;11.23;34.90;97590.06;5099133;28;20101;-55
2023/05/31 12:22:39;;;;;;;30.98;13.45;;;;;;;11.60;33.96;97595.81;5103137;28;20055;-57
2023/05/31 12:25:07;;;;;;;49.88;26.60;;;;;;;11.75;34.22;97589.16;5107376;28;20044;-55
2023/05/31 12:27:34;;;;;;;16.98;4.82;;;;;;;12.04;33.10;97589.94;5103627;28;20121;-56
2023/05/31 12:30:16;;;;;;;26.10;10.75;;;;;;;11.95;33.75;97586.91;5099973;28;20505;-56
2023/05/31 12:32:44;;;;;;;27.73;10.57;;;;;;;12.11;33.41;97595.91;5107511;28;20023;-56
2023/05/31 12:35:12;;;;;;;41.50;19.02;;;;;;;11.88;33.88;97597.66;5078218;28;20048;-56
2023/05/31 12:37:39;;;;;;;21.35;8.88;;;;;;;12.11;33.68;97587.94;5080184;28;20397;-54
2023/05/31 12:40:09;;;;;;;19.60;6.57;;;;;;;12.42;32.82;97597.22;5092273;28;20066;-55
2023/05/31 12:42:36;;;;;;;13.48;4.38;;;;;;;12.45;32.57;97599.38;5082924;28;20047;-54
2023/05/31 12:45:08;;;;;;;16.65;6.50;;;;;;;12.72;32.57;97593.41;5081076;28;20113;-54
2023/05/31 12:47:35;;;;;;;21.13;7.82;;;;;;;12.63;31.42;97598.34;5090191;28;20423;-54
2023/05/31 12:50:05;;;;;;;19.83;4.85;;;;;;;12.28;32.04;97591.44;5089735;28;20062;-54
2023/05/31 12:52:34;;;;;;;14.65;4.80;;;;;;;12.44;31.88;97589.00;5071942;28;20044;-54
2023/05/31 12:55:01;;;;;;;17.17;6.30;;;;;;;12.55;31.66;97589.94;5072377;28;20044;-54
2023/05/31 12:57:29;;;;;;;19.45;5.75;;;;;;;12.32;31.62;97586.44;5072681;28;20046;-53
2023/05/31 13:00:01;;;;;;;16.15;5.15;;;;;;;12.33;32.06;97580.06;5079291;28;20089;-54
2023/05/31 13:02:27;;;;;;;21.83;4.70;;;;;;;12.59;32.28;97581.25;5087551;28;20626;-54
2023/05/31 13:04:55;;;;;;;22.20;6.90;;;;;;;12.70;31.48;97589.38;5087949;28;20039;-54
2023/05/31 13:07:23;;;;;;;19.25;6.35;;;;;;;12.67;31.18;97588.00;5072459;28;20048;-58
2023/05/31 13:09:50;;;;;;;11.48;4.35;;;;;;;12.65;30.69;97582.94;5074636;28;20087;-58
2023/05/31 13:12:18;;;;;;;15.75;6.15;;;;;;;12.54;31.21;97586.50;5080192;28;20175;-58
2023/05/31 13:14:45;;;;;;;16.30;4.60;;;;;;;12.63;30.83;97579.72;5069255;28;20090;-58
2023/05/31 13:17:11;;;;;;;16.63;5.72;;;;;;;12.74;31.16;97572.69;5089317;28;20059;-58
2023/05/31 13:19:38;;;;;;;15.70;4.28;;;;;;;12.67;30.76;97577.38;5088463;28;20043;-58
2023/05/31 13:22:05;;;;;;;14.38;3.70;;;;;;;12.85;31.30;97579.75;5083344;28;20122;-58
2023/05/31 13:24:32;;;;;;;10.73;4.55;;;;;;;13.05;30.71;97570.44;5019282;28;20131;-58
2023/05/31 13:26:59;;;;;;;13.23;3.97;;;;;;;12.90;30.22;97580.84;5050943;28;20056;-58
2023/05/31 13:29:25;;;;;;;17.45;6.10;;;;;;;12.77;30.53;97576.69;5045245;28;20043;-57
2023/05/31 13:31:52;;;;;;;20.77;10.95;;;;;;;13.15;31.33;97567.91;5048240;28;20043;-58
2023/05/31 13:34:20;;;;;;;16.45;6.68;;;;;;;13.35;30.21;97561.22;5041361;28;20056;-57
2023/05/31 13:36:46;;;;;;;17.23;7.80;;;;;;;13.33;29.54;97563.31;5052260;28;20045;-57
2023/05/31 13:39:14;;;;;;;18.38;10.32;;;;;;;13.27;30.03;97573.09;5032942;28;20049;-57
2023/05/31 13:41:42;;;;;;;17.92;8.02;;;;;;;13.30;30.04;97563.78;5041155;28;20058;-57
2023/05/31 13:44:12;;;;;;;18.25;5.68;;;;;;;13.36;29.96;97576.94;5025786;28;20438;-57
2023/05/31 13:46:40;;;;;;;15.70;3.95;;;;;;;13.47;29.76;97561.88;5028539;28;20096;-58
2023/05/31 13:49:07;;;;;;;18.15;9.07;;;;;;;13.49;29.46;97558.97;5014577;28;20497;-58
2023/05/31 13:51:34;;;;;;;17.85;9.02;;;;;;;13.74;29.23;97553.91;5030115;28;20042;-58
2023/05/31 13:54:01;;;;;;;33.13;19.00;;;;;;;13.46;29.19;97554.94;5019593;28;20045;-61
2023/05/31 13:56:27;;;;;;;21.80;12.30;;;;;;;13.39;29.36;97547.16;5011089;28;20054;-61
2023/05/31 13:58:54;;;;;;;26.90;13.57;;;;;;;13.68;29.36;97549.59;5020020;28;20502;-58
2023/05/31 14:01:21;;;;;;;18.80;9.23;;;;;;;14.03;29.19;97550.97;5019163;28;20099;-56
2023/05/31 14:03:48;;;;;;;25.05;9.30;;;;;;;14.17;28.87;97561.97;5032586;28;20042;-57
2023/05/31 14:06:15;;;;;;;18.63;4.43;;;;;;;14.13;28.35;97553.69;5021099;28;20048;-56
2023/05/31 14:08:44;;;;;;;13.07;3.65;;;;;;;14.52;28.41;97556.13;5032179;28;20510;-57
2023/05/31 14:11:12;;;;;;;13.80;4.65;;;;;;;14.80;28.47;97551.50;5027233;28;20129;-56
2023/05/31 14:13:39;;;;;;;13.13;4.10;;;;;;;14.82;28.62;97554.72;5026174;28;20100;-57
2023/05/31 14:16:05;;;;;;;13.07;4.55;;;;;;;14.69;28.06;97547.19;5028022;28;20060;-55
2023/05/31 14:18:32;;;;;;;12.98;4.53;;;;;;;14.83;28.95;97537.66;5029584;28;20136;-56
2023/05/31 14:20:59;;;;;;;13.38;4.10;;;;;;;14.85;28.07;97538.19;5032615;28;20053;-54
2023/05/31 14:23:26;;;;;;;15.07;4.40;;;;;;;14.78;28.21;97534.94;5039512;28;20057;-55
2023/05/31 14:25:53;;;;;;;14.75;3.92;;;;;;;14.71;27.77;97535.16;5032053;28;20054;-55
2023/05/31 14:28:19;;;;;;;10.07;3.40;;;;;;;14.90;27.49;97548.09;5025207;28;20053;-55
2023/05/31 14:30:46;;;;;;;12.60;3.20;;;;;;;15.30;27.95;97538.63;5031566;28;20597;-55
2023/05/31 14:33:13;;;;;;;11.88;3.70;;;;;;;15.43;27.49;97534.66;5027648;28;20049;-56
2023/05/31 14:35:39;;;;;;;20.02;3.58;;;;;;;15.29;27.57;97534.34;5032288;28;20060;-55
2023/05/31 14:38:06;;;;;;;14.90;3.70;;;;;;;15.34;28.86;97540.50;5030725;28;20490;-56
2023/05/31 14:40:33;;;;;;;13.18;3.85;;;;;;;15.46;27.93;97544.81;5037616;28;20037;-56
2023/05/31 14:42:59;;;;;;;11.27;3.63;;;;;;;15.63;26.71;97542.72;5027950;28;20529;-55
2023/05/31 14:45:26;;;;;;;12.73;3.17;;;;;;;15.18;26.94;97535.38;5031715;28;20041;-55
2023/05/31 14:47:53;;;;;;;13.65;3.65;;;;;;;15.31;27.47;97532.22;5022773;28;20388;-55
2023/05/31 14:50:20;;;;;;;13.98;3.88;;;;;;;15.32;27.49;97537.31;5029193;28;20164;-55
2023/05/31 14:52:46;;;;;;;13.07;3.55;;;;;;;15.35;27.03;97542.13;5025448;28;20099;-56
2023/05/31 14:55:13;;;;;;;12.15;3.10;;;;;;;15.46;27.04;97536.78;5051343;28;20067;-55
2023/05/31 14:57:40;;;;;;;10.77;3.55;;;;;;;15.49;27.11;97530.94;5030454;28;20558;-55
2023/05/31 15:00:08;;;;;;;11.75;3.33;;;;;;;15.51;27.07;97537.59;5031333;28;20059;-55
2023/05/31 15:02:35;;;;;;;9.90;3.38;;;;;;;15.23;26.84;97528.19;5027628;28;20095;-55
2023/05/31 15:05:01;;;;;;;11.60;3.35;;;;;;;15.31;27.54;97527.66;5011743;28;20048;-56
2023/05/31 15:07:28;;;;;;;12.15;4.03;;;;;;;15.52;27.17;97536.53;5009181;28;20054;-56
2023/05/31 15:09:55;;;;;;;12.15;3.72;;;;;;;15.39;27.09;97522.88;5025397;28;20044;-57
2023/05/31 15:12:21;;;;;;;29.10;13.93;;;;;;;15.36;27.37;97522.34;5026259;28;20041;-59
2023/05/31 15:14:48;;;;;;;19.30;6.32;;;;;;;15.00;27.67;97512.63;5018434;28;20124;-59
2023/05/31 15:17:15;;;;;;;22.75;7.88;;;;;;;14.68;28.96;97517.03;5025569;28;20042;-60
2023/05/31 15:19:41;;;;;;;27.17;13.70;;;;;;;14.76;29.43;97508.53;5026888;28;20049;-59
2023/05/31 15:22:10;;;;;;;20.13;6.30;;;;;;;15.09;29.24;97511.84;5022134;28;20775;-58
2023/05/31 15:24:38;;;;;;;21.27;6.82;;;;;;;15.08;29.58;97501.44;5013995;28;20045;-64
2023/05/31 15:27:05;;;;;;;25.85;9.13;;;;;;;15.49;29.06;97518.38;5029559;28;20044;-59
2023/05/31 15:29:33;;;;;;;30.48;4.68;;;;;;;15.67;29.45;97522.41;5031285;28;20045;-59
2023/05/31 15:32:03;;;;;;;19.65;5.47;;;;;;;15.19;29.01;97519.13;5027423;28;20045;-59
2023/05/31 15:34:29;;;;;;;19.30;5.63;;;;;;;14.77;29.95;97509.31;5030532;28;20625;-59
2023/05/31 15:36:56;;;;;;;17.90;6.43;;;;;;;15.14;30.12;97511.09;5009662;28;20124;-59
2023/05/31 15:39:23;;;;;;;15.73;5.75;;;;;;;15.19;30.37;97507.59;5025061;28;20056;-59
2023/05/31 15:41:50;;;;;;;18.27;5.80;;;;;;;14.78;30.15;97497.59;5029753;28;20086;-59
2023/05/31 15:44:17;;;;;;;14.25;4.60;;;;;;;14.48;30.81;97501.69;5026860;28;20483;-59
2023/05/31 15:46:44;;;;;;;13.70;5.07;;;;;;;14.20;30.98;97495.63;5026064;28;20448;-59
2023/05/31 15:49:11;;;;;;;13.80;4.53;;;;;;;13.88;31.52;97484.22;5028274;28;20049;-59
2023/05/31 15:51:38;;;;;;;12.63;4.13;;;;;;;14.10;31.59;97482.25;5031230;28;20045;-60
2023/05/31 15:54:05;;;;;;;18.20;4.40;;;;;;;14.08;32.38;97489.72;5027870;28;20056;-59
2023/05/31 15:56:32;;;;;;;21.20;4.40;;;;;;;13.76;31.87;97479.88;5008977;28;20155;-60
2023/05/31 15:58:58;;;;;;;13.07;4.22;;;;;;;13.87;32.14;97482.63;5001774;28;20057;-59
2023/05/31 16:01:25;;;;;;;13.65;3.70;;;;;;;13.87;31.73;97475.41;5022480;28;20052;-60
2023/05/31 16:03:52;;;;;;;18.80;4.70;;;;;;;13.31;32.64;97470.41;4997903;28;20056;-60
2023/05/31 16:06:19;;;;;;;11.88;4.20;;;;;;;13.50;32.96;97465.53;5011482;28;20171;-59
2023/05/31 16:08:45;;;;;;;11.30;3.83;;;;;;;13.47;32.54;97470.56;5014614;28;20060;-60
2023/05/31 16:11:12;;;;;;;14.50;3.60;;;;;;;13.46;32.53;97467.06;5038449;28;20050;-59
2023/05/31 16:13:38;;;;;;;16.67;3.90;;;;;;;13.58;32.44;97472.25;5032994;28;20057;-56
2023/05/31 16:16:05;;;;;;;9.98;3.30;;;;;;;13.77;32.42;97472.66;5015330;28;20046;-57
2023/05/31 16:18:32;;;;;;;11.70;3.90;;;;;;;13.71;32.27;97461.16;5017796;28;20037;-57
2023/05/31 16:20:59;;;;;;;14.85;4.35;;;;;;;13.49;32.35;97461.25;5000902;28;20049;-57
2023/05/31 16:23:26;;;;;;;27.75;13.32;;;;;;;13.59;32.36;97463.22;5022126;28;20077;-57
2023/05/31 16:25:53;;;;;;;27.60;12.27;;;;;;;13.56;31.92;97456.53;4993775;28;20072;-57
2023/05/31 16:28:21;;;;;;;37.35;20.20;;;;;;;13.65;32.18;97454.22;5021944;28;20511;-57
2023/05/31 16:30:48;;;;;;;52.75;24.70;;;;;;;13.96;32.00;97462.44;5021265;28;20482;-57
2023/05/31 16:33:15;;;;;;;24.55;11.73;;;;;;;14.17;31.76;97469.50;5040596;28;20060;-57
2023/05/31 16:35:41;;;;;;;32.28;17.98;;;;;;;14.27;31.99;97460.75;5024722;28;20065;-58
2023/05/31 16:38:08;;;;;;;32.08;18.42;;;;;;;14.05;31.70;97468.09;5030067;28;20053;-58
2023/05/31 16:40:35;;;;;;;20.30;9.18;;;;;;;13.58;31.98;97450.94;5015221;28;20149;-58
2023/05/31 16:43:02;;;;;;;19.70;6.28;;;;;;;13.75;32.46;97462.28;5018777;28;20040;-56
2023/05/31 16:45:29;;;;;;;23.98;10.25;;;;;;;13.76;31.97;97463.88;5018217;28;20952;-56
2023/05/31 16:47:56;;;;;;;15.30;4.32;;;;;;;13.06;33.15;97445.13;5032167;28;20402;-57
2023/05/31 16:50:22;;;;;;;19.08;7.65;;;;;;;13.09;33.05;97445.66;5021593;28;20056;-57
2023/05/31 16:52:51;;;;;;;16.15;4.18;;;;;;;12.53;34.13;97436.00;5024822;28;20042;-57
2023/05/31 16:55:19;;;;;;;17.00;7.55;;;;;;;12.54;34.35;97436.81;5026657;28;20089;-57
2023/05/31 16:57:46;;;;;;;16.02;5.25;;;;;;;12.46;34.63;97433.53;5025717;28;20034;-58
2023/05/31 17:00:14;;;;;;;16.98;4.95;;;;;;;11.99;35.82;97436.63;5027369;28;20060;-58
2023/05/31 17:02:40;;;;;;;17.48;5.40;;;;;;;11.73;35.70;97422.09;5025938;28;20048;-58
2023/05/31 17:05:07;;;;;;;15.18;5.72;;;;;;;11.30;36.30;97418.25;5028254;28;20037;-59
2023/05/31 17:07:34;;;;;;;12.95;3.70;;;;;;;11.27;36.63;97410.75;5012530;28;20080;-59
2023/05/31 17:10:01;;;;;;;15.30;4.53;;;;;;;11.10;36.76;97414.19;5013698;28;20052;-58
2023/05/31 17:12:28;;;;;;;12.07;3.95;;;;;;;10.95;37.21;97403.28;5011868;28;20053;-59
2023/05/31 17:14:55;;;;;;;18.35;3.55;;;;;;;10.81;37.95;97415.25;5033224;28;20058;-59
2023/05/31 17:17:21;;;;;;;16.65;4.00;;;;;;;10.67;38.07;97399.59;5012246;28;20495;-59
2023/05/31 17:19:48;;;;;;;16.40;4.03;;;;;;;10.59;38.33;97391.22;5042054;28;20049;-58
2023/05/31 17:22:15;;;;;;;13.30;3.80;;;;;;;10.71;38.29;97395.47;5032992;28;20037;-58
2023/05/31 17:24:42;;;;;;;12.75;3.83;;;;;;;10.64;38.63;97400.09;5032882;28;20055;-58
2023/05/31 17:27:08;;;;;;;13.18;3.90;;;;;;;10.52;39.13;97396.69;5000757;28;20073;-59
2023/05/31 17:29:35;;;;;;;9.95;3.53;;;;;;;10.23;39.26;97391.28;5023983;28;20048;-58
2023/05/31 17:32:02;;;;;;;9.35;3.45;;;;;;;10.22;39.56;97388.88;5018817;28;20129;-58
2023/05/31 17:34:29;;;;;;;16.58;4.10;;;;;;;10.22;39.41;97392.31;5039985;28;20052;-58
2023/05/31 17:36:55;;;;;;;15.98;3.83;;;;;;;10.07;39.59;97384.88;5013844;28;20033;-58
2023/05/31 17:39:22;;;;;;;10.68;3.72;;;;;;;10.11;40.04;97393.94;5040570;28;20057;-58
2023/05/31 17:41:48;;;;;;;11.25;3.40;;;;;;;10.14;40.12;97393.50;5013288;28;20064;-58
2023/05/31 17:44:15;;;;;;;11.30;3.70;;;;;;;10.06;40.51;97385.09;5037516;28;20387;-58
2023/05/31 17:46:42;;;;;;;11.90;3.83;;;;;;;9.91;40.31;97386.38;5009795;28;20049;-58
2023/05/31 17:49:08;;;;;;;13.88;3.60;;;;;;;9.81;40.93;97378.22;5024404;28;20399;-58
2023/05/31 17:51:36;;;;;;;12.38;3.38;;;;;;;9.84;40.53;97385.72;5018312;28;20479;-58
2023/05/31 17:54:03;;;;;;;15.23;3.92;;;;;;;9.77;41.09;97383.16;5032705;28;20128;-58
2023/05/31 17:56:30;;;;;;;14.10;3.70;;;;;;;9.66;41.18;97380.50;5013897;28;20055;-58
2023/05/31 17:58:57;;;;;;;12.10;4.40;;;;;;;9.71;41.55;97378.78;5025325;28;20529;-58
2023/05/31 18:01:23;;;;;;;13.68;4.15;;;;;;;9.65;41.39;97377.06;5012788;28;20099;-58
2023/05/31 18:03:51;;;;;;;15.18;3.95;;;;;;;9.51;41.45;97384.41;5036188;28;20059;-58
2023/05/31 18:06:17;;;;;;;12.80;3.65;;;;;;;9.51;41.75;97373.03;5009486;28;20388;-58
2023/05/31 18:08:44;;;;;;;15.52;4.22;;;;;;;9.57;41.91;97374.78;5041300;28;20440;-58
2023/05/31 18:11:11;;;;;;;13.43;3.75;;;;;;;9.57;42.07;97380.06;5025658;28;20041;-58
2023/05/31 18:13:37;;;;;;;16.92;4.97;;;;;;;9.37;42.29;97377.75;5026018;28;20045;-57
2023/05/31 18:16:04;;;;;;;13.80;3.33;;;;;;;9.32;42.58;97378.41;5022432;28;20491;-57
2023/05/31 18:18:31;;;;;;;43.80;4.50;;;;;;;9.39;43.19;97379.13;5014259;28;20061;-56
2023/05/31 18:20:58;;;;;;;14.05;3.67;;;;;;;9.41;42.35;97373.59;5012699;28;20049;-57
2023/05/31 18:23:25;;;;;;;12.77;3.83;;;;;;;9.36;42.78;97369.00;5020812;28;20415;-57
2023/05/31 18:25:51;;;;;;;12.65;3.83;;;;;;;9.37;43.08;97381.19;5028851;28;20553;-59
2023/05/31 18:28:18;;;;;;;11.73;3.60;;;;;;;9.32;43.13;97372.34;5015923;28;20515;-57
2023/05/31 18:30:44;;;;;;;11.88;3.55;;;;;;;9.22;42.97;97381.63;5027983;28;20494;-57
2023/05/31 18:33:11;;;;;;;17.42;3.95;;;;;;;9.25;43.09;97375.06;5010572;28;20041;-57
2023/05/31 18:35:40;;;;;;;16.92;4.22;;;;;;;9.17;43.64;97376.22;5024611;28;20041;-57
2023/05/31 18:38:07;;;;;;;15.20;3.53;;;;;;;9.20;43.55;97382.88;5003733;28;20046;-58
2023/05/31 18:40:34;;;;;;;15.35;6.68;;;;;;;9.20;43.59;97382.88;5026628;28;20053;-58
2023/05/31 18:43:02;;;;;;;17.42;4.28;;;;;;;9.15;43.61;97372.16;5017856;28;20042;-57
2023/05/31 18:45:29;;;;;;;12.30;4.57;;;;;;;9.04;43.65;97384.34;5027367;28;20056;-58
2023/05/31 18:47:56;;;;;;;14.07;4.70;;;;;;;9.02;43.61;97376.66;5011493;28;20041;-57
2023/05/31 18:50:22;;;;;;;12.15;3.80;;;;;;;8.87;43.83;97375.44;5030399;28;20067;-58
2023/05/31 18:52:49;;;;;;;14.25;3.83;;;;;;;8.84;43.82;97374.88;5005235;28;20128;-57
2023/05/31 18:55:16;;;;;;;12.98;3.90;;;;;;;8.88;44.01;97377.88;5035841;28;20055;-57
2023/05/31 18:57:42;;;;;;;13.02;3.70;;;;;;;8.82;43.76;97374.28;5019182;28;20044;-59
2023/05/31 19:00:10;;;;;;;13.32;5.18;;;;;;;8.74;43.96;97369.31;5036923;28;20060;-57
2023/05/31 19:02:36;;;;;;;27.02;12.27;;;;;;;8.71;43.98;97368.94;5013790;28;20405;-59
2023/05/31 19:05:04;;;;;;;57.60;29.90;;;;;;;8.66;44.35;97367.00;5028531;28;20045;-57
2023/05/31 19:07:31;;;;;;;21.17;7.25;;;;;;;8.58;43.68;97367.28;4999655;28;20057;-55
2023/05/31 19:09:58;;;;;;;31.35;15.85;;;;;;;8.59;43.76;97366.28;5008723;28;20112;-55
2023/05/31 19:12:24;;;;;;;13.50;4.50;;;;;;;8.53;43.73;97367.16;5028504;28;20048;-55
2023/05/31 19:14:56;;;;;;;14.90;3.85;;;;;;;8.51;43.63;97367.38;5027823;28;20033;-55
2023/05/31 19:17:22;;;;;;;12.27;3.97;;;;;;;8.44;43.49;97364.81;5031543;28;20453;-55
2023/05/31 19:19:49;;;;;;;19.60;4.13;;;;;;;8.38;43.78;97363.03;5032364;28;20111;-55
2023/05/31 19:22:15;;;;;;;23.13;11.25;;;;;;;8.35;44.05;97362.66;5032263;28;20399;-55
2023/05/31 19:24:42;;;;;;;22.45;8.80;;;;;;;8.32;43.93;97366.56;5031387;28;20099;-54
2023/05/31 19:27:09;;;;;;;18.65;5.38;;;;;;;8.26;44.19;97365.63;5032490;28;20065;-55
2023/05/31 19:29:36;;;;;;;14.02;3.72;;;;;;;8.23;43.79;97370.53;5031904;28;20041;-54
2023/05/31 19:32:05;;;;;;;8.60;3.40;;;;;;;8.15;44.31;97362.91;5031984;28;20544;-55
2023/05/31 19:34:32;;;;;;;16.02;6.13;;;;;;;8.07;44.46;97361.38;5032952;28;20048;-55
2023/05/31 19:37:01;;;;;;;18.95;7.75;;;;;;;8.07;44.21;97364.81;5032963;28;20069;-55
2023/05/31 19:39:28;;;;;;;13.32;4.07;;;;;;;7.97;44.18;97369.00;5032228;28;20073;-55
2023/05/31 19:41:57;;;;;;;15.05;5.60;;;;;;;7.92;44.73;97359.09;5029726;28;20156;-55
2023/05/31 19:44:23;;;;;;;13.13;3.33;;;;;;;7.84;44.35;97359.38;5027226;28;20041;-54
2023/05/31 19:46:51;;;;;;;13.30;3.72;;;;;;;7.88;44.24;97364.00;5034006;28;20045;-55
2023/05/31 19:49:18;;;;;;;18.90;7.85;;;;;;;7.87;44.84;97364.22;5042795;28;20072;-55
2023/05/31 19:51:44;;;;;;;15.32;6.55;;;;;;;7.86;44.57;97367.91;5036565;28;20120;-55
2023/05/31 19:54:11;;;;;;;10.80;3.60;;;;;;;7.77;45.08;97367.38;5036686;28;20045;-55
2023/05/31 19:56:38;;;;;;;12.32;3.85;;;;;;;7.73;44.72;97365.38;5036532;28;20483;-55
2023/05/31 19:59:05;;;;;;;9.98;3.70;;;;;;;7.68;45.23;97371.31;5035175;28;20053;-56
2023/05/31 20:01:31;;;;;;;14.68;4.50;;;;;;;7.60;45.11;97376.84;5039009;28;20109;-55
2023/05/31 20:03:58;;;;;;;12.48;3.55;;;;;;;7.57;45.49;97374.69;5032753;28;20042;-55
2023/05/31 20:06:26;;;;;;;19.95;5.60;;;;;;;7.52;45.71;97372.66;5033182;28;20069;-55
2023/05/31 20:08:52;;;;;;;10.00;3.38;;;;;;;7.50;45.46;97369.44;5032952;28;20042;-54
2023/05/31 20:11:20;;;;;;;12.70;3.55;;;;;;;7.39;45.60;97373.59;5030355;28;20091;-54
2023/05/31 20:13:46;;;;;;;20.05;3.70;;;;;;;7.36;46.03;97381.94;5033088;28;20052;-55
2023/05/31 20:16:13;;;;;;;17.55;6.38;;;;;;;7.32;46.06;97377.31;5035382;28;20053;-55
2023/05/31 20:18:40;;;;;;;15.32;3.80;;;;;;;7.24;46.19;97375.72;5036579;28;20046;-55
2023/05/31 20:21:06;;;;;;;12.75;3.55;;;;;;;7.22;46.27;97383.06;5036447;28;20099;-54
2023/05/31 20:23:33;;;;;;;16.60;4.15;;;;;;;7.20;46.60;97380.63;5035930;28;20084;-55